createdAt,value
2018-12-27T00:00:30.663Z,2.40
2018-12-27T00:03:12.789Z,2.50
2018-12-27T00:05:55.351Z,2.60
2018-12-27T00:08:37.484Z,2.50
2018-12-27T00:11:19.559Z,2.60
2018-12-27T00:14:02.034Z,2.50
2018-12-27T00:16:43.886Z,2.50
2018-12-27T00:19:26.103Z,2.50
2018-12-27T00:22:08.487Z,2.50
2018-12-27T00:24:51.179Z,2.50
2018-12-27T00:27:33.963Z,2.50
2018-12-27T00:30:16.257Z,2.50
2018-12-27T00:33:03.150Z,2.50
2018-12-27T00:35:42.264Z,2.50
2018-12-27T00:38:24.229Z,2.40
2018-12-27T00:41:06.502Z,2.40
2018-12-27T00:43:49.169Z,2.50
2018-12-27T00:46:31.198Z,2.60
2018-12-27T00:49:13.300Z,2.50
2018-12-27T00:51:55.371Z,2.50
2018-12-27T00:54:37.261Z,2.40
2018-12-27T00:57:19.992Z,2.40
2018-12-27T01:00:02.141Z,2.40
2018-12-27T01:02:44.625Z,2.30
2018-12-27T01:05:26.601Z,2.30
2018-12-27T01:08:08.663Z,2.30
2018-12-27T01:10:50.881Z,2.40
2018-12-27T01:13:33.371Z,2.30
2018-12-27T01:16:15.456Z,2.20
2018-12-27T01:18:58.154Z,2.10
2018-12-27T01:21:40.613Z,2.10
2018-12-27T01:24:23.077Z,2.10
2018-12-27T01:27:04.899Z,2.10
2018-12-27T01:29:50.031Z,2.20
2018-12-27T01:32:33.771Z,2.20
2018-12-27T01:35:15.921Z,2.20
2018-12-27T01:37:57.630Z,2.20
2018-12-27T01:40:39.834Z,2.30
2018-12-27T01:43:21.977Z,2.30
2018-12-27T01:46:04.294Z,2.20
2018-12-27T01:48:46.385Z,2.30
2018-12-27T01:51:28.211Z,2.30
2018-12-27T01:54:10.511Z,2.20
2018-12-27T01:56:52.712Z,2.20
2018-12-27T01:59:34.444Z,2.20
2018-12-27T02:02:16.881Z,2.20
2018-12-27T02:04:59.635Z,2.10
2018-12-27T02:07:41.845Z,2.00
2018-12-27T02:10:24.213Z,2.00
2018-12-27T02:13:06.421Z,2.00
2018-12-27T02:15:48.768Z,2.10
2018-12-27T02:18:30.549Z,2.10
2018-12-27T02:21:12.580Z,2.10
2018-12-27T02:23:54.418Z,2.10
2018-12-27T02:26:36.588Z,2.10
2018-12-27T02:29:18.479Z,2.00
2018-12-27T02:32:00.786Z,2.00
2018-12-27T02:34:42.805Z,1.90
2018-12-27T02:37:25.057Z,1.90
2018-12-27T02:40:06.987Z,2.10
2018-12-27T02:42:49.182Z,2.20
2018-12-27T02:45:31.141Z,2.20
2018-12-27T02:48:13.075Z,2.20
2018-12-27T02:50:58.290Z,2.20
2018-12-27T02:53:40.408Z,2.10
2018-12-27T02:56:22.949Z,2.10
2018-12-27T02:59:05.777Z,2.10
2018-12-27T03:01:48.029Z,2.10
2018-12-27T03:04:30.395Z,2.00
2018-12-27T03:07:12.703Z,2.00
2018-12-27T03:09:54.629Z,2.10
2018-12-27T03:12:36.885Z,2.10
2018-12-27T03:15:19.100Z,2.20
2018-12-27T03:18:01.003Z,2.30
2018-12-27T03:20:43.129Z,2.20
2018-12-27T03:23:25.455Z,2.30
2018-12-27T03:26:07.342Z,2.20
2018-12-27T03:28:49.934Z,2.20
2018-12-27T03:31:31.966Z,2.10
2018-12-27T03:34:13.773Z,2.10
2018-12-27T03:36:55.977Z,2.00
2018-12-27T03:39:37.937Z,2.00
2018-12-27T03:42:20.075Z,2.10
2018-12-27T03:45:02.217Z,2.10
2018-12-27T03:47:44.344Z,2.00
2018-12-27T03:50:26.383Z,2.00
2018-12-27T03:53:08.655Z,2.00
2018-12-27T03:55:50.830Z,2.00
2018-12-27T03:58:32.673Z,2.10
2018-12-27T04:01:03.676Z,2.20
2018-12-27T04:04:01.018Z,2.20
2018-12-27T04:32:56.273Z,2.00
2018-12-27T04:36:06.247Z,2.00
2018-12-27T04:39:15.359Z,2.10
2018-12-27T04:42:19.023Z,2.00
2018-12-27T04:45:16.313Z,2.10
2018-12-27T04:54:42.490Z,2.10
2018-12-27T04:57:51.874Z,2.10
2018-12-27T05:04:18.414Z,2.10
2018-12-27T05:10:57.150Z,2.10
2018-12-27T05:24:06.393Z,1.80
2018-12-27T05:26:55.974Z,1.90
2018-12-27T05:30:05.028Z,2.00
2018-12-27T05:33:14.082Z,2.00
2018-12-27T05:39:39.212Z,1.90
2018-12-27T05:52:36.277Z,1.90
2018-12-27T05:55:45.749Z,2.00
2018-12-27T05:58:35.379Z,1.90
2018-12-27T06:01:44.445Z,2.00
2018-12-27T06:07:48.733Z,2.00
2018-12-27T06:10:57.811Z,2.00
2018-12-27T06:17:03.216Z,2.10
2018-12-27T06:20:24.460Z,2.20
2018-12-27T06:29:47.865Z,2.20
2018-12-27T06:32:56.904Z,2.20
2018-12-27T06:35:46.512Z,2.20
2018-12-27T06:38:46.581Z,2.10
2018-12-27T06:48:06.145Z,2.20
2018-12-27T06:51:15.349Z,2.10
2018-12-27T06:54:24.447Z,2.20
2018-12-27T06:57:33.583Z,2.20
2018-12-27T07:00:42.629Z,2.20
2018-12-27T07:03:32.409Z,2.20
2018-12-27T07:06:41.440Z,2.10
2018-12-27T07:09:50.450Z,2.10
2018-12-27T07:12:59.979Z,2.10
2018-12-27T07:16:09.053Z,2.10
2018-12-27T07:28:47.990Z,1.90
2018-12-27T07:37:57.744Z,1.70
2018-12-27T07:40:40.245Z,1.70
2018-12-27T07:43:22.640Z,1.80
2018-12-27T07:46:10.736Z,1.70
2018-12-27T07:48:49.090Z,1.80
2018-12-27T07:51:31.268Z,1.70
2018-12-27T07:54:13.367Z,1.80
2018-12-27T07:56:55.829Z,1.90
2018-12-27T07:59:38.457Z,2.00
2018-12-27T08:02:20.747Z,2.10
2018-12-27T08:05:04.277Z,2.10
2018-12-27T08:07:46.377Z,2.10
2018-12-27T08:10:28.972Z,2.10
2018-12-27T08:13:11.297Z,2.20
2018-12-27T08:15:53.881Z,2.20
2018-12-27T08:18:36.235Z,2.20
2018-12-27T08:21:18.350Z,2.20
2018-12-27T08:24:01.061Z,2.30
2018-12-27T08:26:42.922Z,2.30
2018-12-27T08:29:24.693Z,2.30
2018-12-27T08:32:06.687Z,2.40
2018-12-27T08:34:49.118Z,2.40
2018-12-27T08:37:31.385Z,2.20
2018-12-27T08:40:13.519Z,2.20
2018-12-27T08:42:57.815Z,2.20
2018-12-27T08:45:40.612Z,2.20
2018-12-27T08:48:23.005Z,2.20
2018-12-27T08:51:04.949Z,2.20
2018-12-27T08:53:47.553Z,2.30
2018-12-27T08:56:29.941Z,2.40
2018-12-27T08:59:12.211Z,2.40
2018-12-27T09:01:54.728Z,2.30
2018-12-27T09:04:37.190Z,2.40
2018-12-27T09:07:19.457Z,2.30
2018-12-27T09:10:01.620Z,2.30
2018-12-27T09:12:43.984Z,2.20
2018-12-27T09:15:26.397Z,2.30
2018-12-27T09:18:09.109Z,2.40
2018-12-27T09:20:51.365Z,2.50
2018-12-27T09:23:35.722Z,2.50
2018-12-27T09:26:18.217Z,2.50
2018-12-27T09:29:01.849Z,2.60
2018-12-27T09:31:44.264Z,2.70
2018-12-27T09:34:27.101Z,2.70
2018-12-27T09:37:09.515Z,2.80
2018-12-27T09:39:51.885Z,2.80
2018-12-27T09:42:34.114Z,2.80
2018-12-27T09:45:16.513Z,2.80
2018-12-27T09:47:58.519Z,2.80
2018-12-27T09:50:40.895Z,2.70
2018-12-27T09:53:23.227Z,2.60
2018-12-27T09:56:05.694Z,2.50
2018-12-27T09:58:47.773Z,2.60
2018-12-27T10:01:29.703Z,2.60
2018-12-27T10:04:12.003Z,2.60
2018-12-27T10:06:53.819Z,2.50
2018-12-27T10:09:35.973Z,2.70
2018-12-27T10:12:17.889Z,2.70
2018-12-27T10:15:00.306Z,2.70
2018-12-27T10:17:42.627Z,2.60
2018-12-27T10:20:25.104Z,2.60
2018-12-27T10:23:07.067Z,2.50
2018-12-27T10:25:49.469Z,2.60
2018-12-27T10:28:31.571Z,2.70
2018-12-27T10:31:13.682Z,2.60
2018-12-27T10:33:55.534Z,2.70
2018-12-27T10:36:37.824Z,2.70
2018-12-27T10:39:19.962Z,2.60
2018-12-27T10:42:02.072Z,2.70
2018-12-27T10:44:44.124Z,2.70
2018-12-27T10:47:26.501Z,2.70
2018-12-27T10:50:08.797Z,2.80
2018-12-27T10:52:51.115Z,2.80
2018-12-27T10:55:33.867Z,2.80
2018-12-27T10:58:16.551Z,2.70
2018-12-27T11:00:59.034Z,2.60
2018-12-27T11:03:41.216Z,2.70
2018-12-27T11:06:23.921Z,2.70
2018-12-27T11:09:05.980Z,2.70
2018-12-27T11:11:48.310Z,2.70
2018-12-27T11:14:30.303Z,2.70
2018-12-27T11:17:12.295Z,2.70
2018-12-27T11:19:54.685Z,2.70
2018-12-27T11:22:36.651Z,2.80
2018-12-27T11:25:19.418Z,2.80
2018-12-27T11:28:01.724Z,2.80
2018-12-27T11:30:44.290Z,2.80
2018-12-27T11:33:26.876Z,2.80
2018-12-27T11:36:17.057Z,2.90
2018-12-27T11:38:54.717Z,2.90
2018-12-27T11:41:38.692Z,2.90
2018-12-27T11:44:21.387Z,2.90
2018-12-27T11:47:04.262Z,3.00
2018-12-27T11:49:46.157Z,3.00
2018-12-27T11:52:30.467Z,3.00
2018-12-27T11:55:13.714Z,3.00
2018-12-27T11:57:56.008Z,3.00
2018-12-27T12:00:38.113Z,3.00
2018-12-27T12:06:05.616Z,3.10
2018-12-27T12:08:47.875Z,3.20
2018-12-27T12:11:30.389Z,3.10
2018-12-27T12:14:12.407Z,3.10
2018-12-27T12:16:54.595Z,3.10
2018-12-27T12:19:36.749Z,3.10
2018-12-27T12:22:19.060Z,3.20
2018-12-27T12:25:00.999Z,3.30
2018-12-27T12:27:43.153Z,3.20
2018-12-27T12:30:25.523Z,3.10
2018-12-27T12:33:07.624Z,3.20
2018-12-27T12:35:49.436Z,3.30
2018-12-27T12:38:31.961Z,3.30
2018-12-27T12:41:14.210Z,3.20
2018-12-27T12:43:56.668Z,3.20
2018-12-27T12:46:39.311Z,3.20
2018-12-27T12:49:22.006Z,3.30
2018-12-27T12:52:04.366Z,3.40
2018-12-27T12:54:46.392Z,3.30
2018-12-27T12:57:28.272Z,3.30
2018-12-27T13:00:10.785Z,3.30
2018-12-27T13:02:53.293Z,3.40
2018-12-27T13:05:35.759Z,3.40
2018-12-27T13:08:17.953Z,3.40
2018-12-27T13:11:00.532Z,3.40
2018-12-27T13:13:42.698Z,3.40
2018-12-27T13:16:24.813Z,3.40
2018-12-27T13:19:07.048Z,3.40
2018-12-27T13:21:49.178Z,3.50
2018-12-27T13:24:31.124Z,3.50
2018-12-27T13:27:13.958Z,3.60
2018-12-27T13:29:56.173Z,3.50
2018-12-27T13:32:38.705Z,3.50
2018-12-27T13:35:20.895Z,3.50
2018-12-27T13:38:03.276Z,3.40
2018-12-27T13:40:45.498Z,3.50
2018-12-27T13:43:27.869Z,3.50
2018-12-27T13:46:09.926Z,3.50
2018-12-27T13:48:52.653Z,3.50
2018-12-27T13:51:34.766Z,3.60
2018-12-27T13:54:16.728Z,3.50
2018-12-27T13:56:58.647Z,3.50
2018-12-27T13:59:41.390Z,3.50
2018-12-27T14:02:23.213Z,3.40
2018-12-27T14:05:05.725Z,3.40
2018-12-27T14:07:47.741Z,3.50
2018-12-27T14:10:30.323Z,3.50
2018-12-27T14:13:12.487Z,3.60
2018-12-27T14:15:54.476Z,3.60
2018-12-27T14:18:36.399Z,3.60
2018-12-27T14:21:18.859Z,3.60
2018-12-27T14:24:00.994Z,3.60
2018-12-27T14:26:43.493Z,3.60
2018-12-27T14:29:25.783Z,3.60
2018-12-27T14:32:07.900Z,3.60
2018-12-27T14:34:50.788Z,3.60
2018-12-27T14:37:32.638Z,3.60
2018-12-27T14:40:14.963Z,3.60
2018-12-27T14:42:57.812Z,3.60
2018-12-27T14:45:40.063Z,3.60
2018-12-27T14:48:22.333Z,3.50
2018-12-27T14:51:04.457Z,3.50
2018-12-27T14:53:46.337Z,3.50
2018-12-27T14:56:28.037Z,3.50
2018-12-27T14:59:09.933Z,3.50
2018-12-27T15:01:51.785Z,3.50
2018-12-27T15:04:34.338Z,3.50
2018-12-27T15:07:16.202Z,3.50
2018-12-27T15:09:58.490Z,3.50
2018-12-27T15:12:41.089Z,3.60
2018-12-27T15:15:23.065Z,3.60
2018-12-27T15:18:05.187Z,3.60
2018-12-27T15:20:47.572Z,3.70
2018-12-27T15:23:29.857Z,3.70
2018-12-27T15:26:11.991Z,3.60
2018-12-27T15:28:53.781Z,3.60
2018-12-27T15:31:35.818Z,3.60
2018-12-27T15:34:17.781Z,3.50
2018-12-27T15:37:01.509Z,3.30
2018-12-27T15:39:43.934Z,3.40
2018-12-27T15:42:26.677Z,3.40
2018-12-27T15:45:09.253Z,3.30
2018-12-27T15:47:51.507Z,3.20
2018-12-27T15:50:33.709Z,3.10
2018-12-27T15:53:16.035Z,3.10
2018-12-27T15:55:57.969Z,3.00
2018-12-27T15:58:40.585Z,2.90
2018-12-27T16:01:22.633Z,2.90
2018-12-27T16:04:05.401Z,2.90
2018-12-27T16:06:47.542Z,2.90
2018-12-27T16:09:29.696Z,2.90
2018-12-27T16:12:11.417Z,3.00
2018-12-27T16:14:53.259Z,3.00
2018-12-27T16:17:36.327Z,3.00
2018-12-27T16:20:19.231Z,3.00
2018-12-27T16:23:01.205Z,3.00
2018-12-27T16:25:43.378Z,3.10
2018-12-27T16:28:26.028Z,3.00
2018-12-27T16:31:08.549Z,3.00
2018-12-27T16:33:51.637Z,3.00
2018-12-27T16:36:34.218Z,3.00
2018-12-27T16:39:16.457Z,2.90
2018-12-27T16:41:58.935Z,2.90
2018-12-27T16:44:41.337Z,2.90
2018-12-27T16:47:24.057Z,3.00
2018-12-27T16:50:06.462Z,2.90
2018-12-27T16:52:49.061Z,3.00
2018-12-27T16:55:30.941Z,3.00
2018-12-27T16:58:12.733Z,2.90
2018-12-27T17:00:55.037Z,2.90
2018-12-27T17:03:37.143Z,2.80
2018-12-27T17:06:19.514Z,2.80
2018-12-27T17:09:01.637Z,2.80
2018-12-27T17:11:44.418Z,2.80
2018-12-27T17:14:27.106Z,2.80
2018-12-27T17:17:09.370Z,2.80
2018-12-27T17:19:51.665Z,2.80
2018-12-27T17:22:33.880Z,2.80
2018-12-27T17:25:16.273Z,2.80
2018-12-27T17:27:58.559Z,2.80
2018-12-27T17:30:41.215Z,2.70
2018-12-27T17:33:22.978Z,2.80
2018-12-27T17:36:05.659Z,2.80
2018-12-27T17:38:48.259Z,2.80
2018-12-27T17:41:30.972Z,2.80
2018-12-27T17:44:13.034Z,2.70
2018-12-27T17:46:55.401Z,2.70
2018-12-27T17:49:37.633Z,2.60
2018-12-27T17:52:19.773Z,2.60
2018-12-27T17:55:01.607Z,2.50
2018-12-27T17:57:44.332Z,2.50
2018-12-27T18:00:26.326Z,2.40
2018-12-27T18:03:08.275Z,2.50
2018-12-27T18:05:50.723Z,2.40
2018-12-27T18:08:32.802Z,2.50
2018-12-27T18:11:15.363Z,2.60
2018-12-27T18:13:57.623Z,2.50
2018-12-27T18:16:40.375Z,2.50
2018-12-27T18:19:22.105Z,2.50
2018-12-27T18:22:04.227Z,2.60
2018-12-27T18:24:46.092Z,2.60
2018-12-27T18:27:28.113Z,2.60
2018-12-27T18:30:10.998Z,2.60
2018-12-27T18:32:53.517Z,2.60
2018-12-27T18:35:35.798Z,2.60
2018-12-27T18:38:18.253Z,2.60
2018-12-27T18:41:00.335Z,2.60
2018-12-27T18:43:42.233Z,2.60
2018-12-27T18:46:24.190Z,2.50
2018-12-27T18:49:06.761Z,2.50
2018-12-27T18:51:48.893Z,2.50
2018-12-27T18:54:31.044Z,2.50
2018-12-27T18:57:13.345Z,2.60
2018-12-27T18:59:56.069Z,2.60
2018-12-27T19:02:41.972Z,2.50
2018-12-27T19:05:22.373Z,2.60
2018-12-27T19:08:04.866Z,2.60
2018-12-27T19:10:51.599Z,2.60
2018-12-27T19:13:31.045Z,2.60
2018-12-27T19:16:12.913Z,2.50
2018-12-27T19:18:54.953Z,2.60
2018-12-27T19:21:37.149Z,2.50
2018-12-27T19:24:19.225Z,2.50
2018-12-27T19:27:01.669Z,2.40
2018-12-27T19:29:43.893Z,2.40
2018-12-27T19:32:26.064Z,2.40
2018-12-27T19:35:07.955Z,2.50
2018-12-27T19:37:52.210Z,2.50
2018-12-27T19:40:34.441Z,2.50
2018-12-27T19:43:17.009Z,2.50
2018-12-27T19:45:59.393Z,2.50
2018-12-27T19:48:41.205Z,2.40
2018-12-27T19:51:23.435Z,2.40
2018-12-27T19:54:05.225Z,2.40
2018-12-27T19:56:47.295Z,2.50
2018-12-27T19:59:29.440Z,2.50
2018-12-27T20:02:11.793Z,2.50
2018-12-27T20:04:54.508Z,2.50
2018-12-27T20:07:36.427Z,2.50
2018-12-27T20:10:19.081Z,2.50
2018-12-27T20:13:01.018Z,2.50
2018-12-27T20:15:42.793Z,2.60
2018-12-27T20:18:24.787Z,2.60
2018-12-27T20:21:07.320Z,2.50
2018-12-27T20:23:49.781Z,2.60
2018-12-27T20:26:32.056Z,2.60
2018-12-27T20:29:14.529Z,2.60
2018-12-27T20:31:56.669Z,2.50
2018-12-27T20:34:39.390Z,2.50
2018-12-27T20:37:21.993Z,2.50
2018-12-27T20:40:03.864Z,2.50
2018-12-27T20:42:45.601Z,2.50
2018-12-27T20:45:28.062Z,2.50
2018-12-27T20:48:10.169Z,2.60
2018-12-27T20:50:52.227Z,2.60
2018-12-27T20:53:34.437Z,2.60
2018-12-27T20:56:16.996Z,2.60
2018-12-27T20:58:59.501Z,2.60
2018-12-27T21:01:42.056Z,2.70
2018-12-27T21:04:24.576Z,2.70
2018-12-27T21:07:06.651Z,2.70
2018-12-27T21:09:48.831Z,2.80
2018-12-27T21:12:30.983Z,2.80
2018-12-27T21:15:13.895Z,2.80
2018-12-27T21:17:56.185Z,2.90
2018-12-27T21:20:38.621Z,2.90
2018-12-27T21:23:21.046Z,2.90
2018-12-27T21:26:03.433Z,2.90
2018-12-27T21:28:45.589Z,2.90
2018-12-27T21:31:28.399Z,2.90
2018-12-27T21:34:11.003Z,2.90
2018-12-27T21:36:53.331Z,2.90
2018-12-27T21:39:35.331Z,3.00
2018-12-27T21:42:17.621Z,2.90
2018-12-27T21:45:00.026Z,2.90
2018-12-27T21:47:42.266Z,2.90
2018-12-27T21:50:24.529Z,2.90
2018-12-27T21:53:06.385Z,3.00
2018-12-27T21:55:48.924Z,3.00
2018-12-27T21:58:30.687Z,3.00
2018-12-27T22:01:40.797Z,3.10
2018-12-27T22:11:19.325Z,3.00
2018-12-27T22:14:08.942Z,3.00
2018-12-27T22:16:58.983Z,3.00
2018-12-27T22:26:34.116Z,3.00
2018-12-27T22:35:59.626Z,3.00
2018-12-27T22:39:09.010Z,2.90
2018-12-27T22:42:12.530Z,2.90
2018-12-27T22:45:02.700Z,2.80
2018-12-27T22:47:44.953Z,2.70
2018-12-27T22:50:27.190Z,2.80
2018-12-27T22:53:09.348Z,2.90
2018-12-27T22:55:51.974Z,2.90
2018-12-27T22:58:34.113Z,2.90
2018-12-27T23:01:16.541Z,2.90
2018-12-27T23:03:58.865Z,2.90
2018-12-27T23:06:41.009Z,2.90
2018-12-27T23:09:22.921Z,3.00
2018-12-27T23:12:05.023Z,2.90
2018-12-27T23:14:47.569Z,2.90
2018-12-27T23:17:29.819Z,2.90
2018-12-27T23:20:12.519Z,2.90
2018-12-27T23:22:54.827Z,2.80
2018-12-27T23:25:37.370Z,2.80
2018-12-27T23:28:19.224Z,2.80
2018-12-27T23:31:02.173Z,2.80
2018-12-27T23:33:44.475Z,2.80
2018-12-27T23:36:26.509Z,2.70
2018-12-27T23:39:08.790Z,2.80
2018-12-27T23:41:50.846Z,2.70
2018-12-27T23:44:33.199Z,2.70
2018-12-27T23:47:15.413Z,2.70
2018-12-27T23:49:57.723Z,2.70
2018-12-27T23:52:40.324Z,2.80
2018-12-27T23:55:22.427Z,2.80
2018-12-27T23:58:04.391Z,2.80
